createdAt,value
2022-12-26T00:01:04.103Z,30.80
2022-12-26T00:03:37.195Z,30.30
2022-12-26T00:06:16.078Z,37.00
2022-12-26T00:08:49.516Z,29.70
2022-12-26T00:11:23.356Z,29.90
2022-12-26T00:14:00.358Z,30.00
2022-12-26T00:16:33.250Z,34.50
2022-12-26T00:19:06.283Z,29.80
2022-12-26T00:21:39.543Z,32.90
2022-12-26T00:24:13.683Z,30.30
2022-12-26T00:26:46.103Z,27.20
2022-12-26T00:29:18.641Z,30.70
2022-12-26T00:31:51.677Z,25.80
2022-12-26T00:34:24.391Z,30.80
2022-12-26T00:36:57.007Z,30.10
2022-12-26T00:39:29.964Z,28.20
2022-12-26T00:42:04.054Z,31.90
2022-12-26T00:44:36.544Z,28.30
2022-12-26T00:47:09.293Z,31.30
2022-12-26T00:50:11.360Z,27.20
2022-12-26T00:52:34.497Z,28.40
2022-12-26T00:55:07.625Z,30.80
2022-12-26T00:57:40.151Z,27.40
2022-12-26T01:00:16.695Z,28.30
2022-12-26T01:02:49.354Z,31.40
2022-12-26T01:05:26.439Z,29.00
2022-12-26T01:08:21.582Z,23.90
2022-12-26T01:10:51.829Z,27.30
2022-12-26T01:13:24.457Z,24.70
2022-12-26T01:15:57.170Z,23.60
2022-12-26T01:18:30.078Z,26.60
2022-12-26T01:21:07.665Z,20.10
2022-12-26T01:23:47.944Z,24.20
2022-12-26T01:26:40.687Z,26.60
2022-12-26T01:29:13.953Z,26.00
2022-12-26T01:31:47.089Z,32.40
2022-12-26T01:34:19.745Z,29.50
2022-12-26T01:36:53.418Z,26.00
2022-12-26T01:41:56.865Z,29.50
2022-12-26T01:45:03.820Z,26.40
2022-12-26T01:47:50.097Z,29.90
2022-12-26T01:50:45.475Z,22.40
2022-12-26T01:53:22.095Z,27.80
2022-12-26T01:56:00.955Z,23.70
2022-12-26T01:58:37.908Z,26.80
2022-12-26T02:01:11.634Z,24.80
2022-12-26T02:06:35.165Z,28.60
2022-12-26T02:11:44.533Z,25.60
2022-12-26T02:14:17.269Z,28.10
2022-12-26T02:16:50.366Z,25.30
2022-12-26T02:19:33.646Z,27.20
2022-12-26T02:22:29.065Z,29.30
2022-12-26T02:25:25.148Z,22.00
2022-12-26T02:28:27.473Z,24.20
2022-12-26T02:31:09.548Z,24.20
2022-12-26T02:34:01.031Z,28.00
2022-12-26T02:36:52.195Z,24.00
2022-12-26T02:39:44.900Z,24.20
2022-12-26T02:42:30.369Z,24.70
2022-12-26T02:45:30.873Z,26.10
2022-12-26T02:48:08.978Z,23.60
2022-12-26T02:51:11.128Z,28.60
2022-12-26T02:54:10.458Z,23.50
2022-12-26T02:57:07.045Z,21.20
2022-12-26T03:00:07.051Z,24.10
2022-12-26T03:03:02.129Z,22.70
2022-12-26T03:05:56.105Z,22.60
2022-12-26T03:08:52.646Z,18.80
2022-12-26T03:11:45.015Z,21.80
2022-12-26T03:14:21.759Z,18.60
2022-12-26T03:17:19.678Z,17.50
2022-12-26T03:20:03.992Z,19.70
2022-12-26T03:22:42.916Z,19.20
2022-12-26T03:25:38.910Z,19.70
2022-12-26T03:28:13.769Z,19.40
2022-12-26T03:30:53.167Z,16.20
2022-12-26T03:33:45.627Z,18.20
2022-12-26T03:36:26.933Z,16.90
2022-12-26T03:39:11.019Z,14.80
2022-12-26T03:42:14.388Z,18.40
2022-12-26T03:45:18.775Z,17.30
2022-12-26T03:51:07.471Z,16.00
2022-12-26T03:54:03.844Z,14.40
2022-12-26T03:56:57.450Z,17.00
2022-12-26T03:59:54.858Z,14.60
2022-12-26T04:02:46.652Z,16.40
2022-12-26T04:05:38.000Z,14.50
2022-12-26T04:08:33.356Z,13.50
2022-12-26T04:11:24.114Z,15.40
2022-12-26T04:14:25.884Z,14.70
2022-12-26T04:17:21.451Z,14.00
2022-12-26T04:20:04.016Z,13.80
2022-12-26T04:22:59.710Z,17.10
2022-12-26T04:26:00.189Z,11.60
2022-12-26T04:28:50.135Z,13.70
2022-12-26T04:31:47.524Z,14.30
2022-12-26T04:34:45.198Z,13.40
2022-12-26T04:37:38.613Z,14.20
2022-12-26T04:40:35.338Z,15.00
2022-12-26T04:43:49.014Z,15.30
2022-12-26T04:46:21.189Z,13.60
2022-12-26T04:49:12.574Z,14.80
2022-12-26T04:51:45.213Z,13.50
2022-12-26T04:54:18.224Z,17.60
2022-12-26T04:56:51.054Z,16.50
2022-12-26T04:59:24.479Z,13.90
2022-12-26T05:02:14.937Z,14.40
2022-12-26T05:05:06.436Z,13.80
2022-12-26T05:07:56.653Z,15.80
2022-12-26T05:10:31.398Z,13.90
2022-12-26T05:13:03.954Z,14.70
2022-12-26T05:15:56.966Z,12.70
2022-12-26T05:18:46.901Z,12.20
2022-12-26T05:21:38.125Z,12.60
2022-12-26T05:24:30.725Z,10.60
2022-12-26T05:27:20.874Z,11.30
2022-12-26T05:29:55.253Z,10.90
2022-12-26T05:32:44.857Z,11.30
2022-12-26T05:35:18.775Z,11.60
2022-12-26T05:37:54.493Z,12.50
2022-12-26T05:40:27.282Z,10.90
2022-12-26T05:43:02.279Z,11.30
2022-12-26T05:45:35.053Z,12.10
2022-12-26T05:48:08.356Z,10.90
2022-12-26T05:50:41.071Z,11.90
2022-12-26T05:53:13.637Z,11.60
2022-12-26T05:55:46.313Z,9.30
2022-12-26T05:58:19.023Z,12.00
2022-12-26T06:00:52.041Z,10.40
2022-12-26T06:03:25.142Z,14.40
2022-12-26T06:06:03.133Z,12.50
2022-12-26T06:08:36.044Z,12.20
2022-12-26T06:11:11.306Z,10.10
2022-12-26T06:13:46.126Z,10.20
2022-12-26T06:16:20.260Z,13.50
2022-12-26T06:18:52.903Z,10.90
2022-12-26T06:21:26.622Z,13.40
2022-12-26T06:26:30.304Z,11.00
2022-12-26T06:29:02.938Z,9.60
2022-12-26T06:31:36.398Z,11.30
2022-12-26T06:34:12.613Z,14.00
2022-12-26T06:36:45.783Z,12.50
2022-12-26T06:39:18.553Z,8.50
2022-12-26T06:41:51.361Z,13.20
2022-12-26T06:44:24.241Z,12.30
2022-12-26T06:46:57.272Z,15.40
2022-12-26T06:49:32.899Z,15.10
2022-12-26T06:52:07.685Z,15.30
2022-12-26T06:54:40.262Z,12.80
2022-12-26T06:57:12.837Z,11.40
2022-12-26T06:59:45.496Z,13.30
2022-12-26T07:02:18.749Z,16.70
2022-12-26T07:07:22.471Z,14.00
2022-12-26T07:09:55.250Z,12.20
2022-12-26T07:12:29.417Z,14.50
2022-12-26T07:15:04.465Z,13.70
2022-12-26T07:17:37.594Z,13.70
2022-12-26T07:20:12.370Z,14.50
2022-12-26T07:22:44.966Z,16.30
2022-12-26T07:25:17.855Z,15.60
2022-12-26T07:27:56.722Z,13.60
2022-12-26T07:30:30.642Z,14.70
2022-12-26T07:33:05.063Z,16.90
2022-12-26T07:35:37.664Z,17.30
2022-12-26T07:38:14.890Z,16.10
2022-12-26T07:40:48.056Z,17.70
2022-12-26T07:43:20.878Z,16.10
2022-12-26T07:46:01.749Z,17.30
2022-12-26T07:48:35.283Z,17.10
2022-12-26T07:51:08.065Z,16.10
2022-12-26T07:53:40.814Z,18.30
2022-12-26T07:56:14.526Z,16.90
2022-12-26T07:58:50.523Z,15.40
2022-12-26T08:01:23.342Z,17.30
2022-12-26T08:03:56.161Z,19.50
2022-12-26T08:06:30.941Z,17.30
2022-12-26T08:09:03.863Z,19.10
2022-12-26T08:11:37.922Z,15.20
2022-12-26T08:14:10.873Z,16.70
2022-12-26T08:16:48.134Z,18.20
2022-12-26T08:19:23.953Z,18.90
2022-12-26T08:21:56.611Z,22.30
2022-12-26T08:24:29.994Z,21.50
2022-12-26T08:27:05.345Z,18.80
2022-12-26T08:29:38.929Z,19.50
2022-12-26T08:32:11.634Z,18.80
2022-12-26T08:34:44.340Z,15.20
2022-12-26T08:37:17.255Z,19.40
2022-12-26T08:39:50.053Z,15.50
2022-12-26T08:42:24.535Z,20.20
2022-12-26T08:44:57.221Z,18.90
2022-12-26T08:47:32.165Z,18.00
2022-12-26T08:50:06.995Z,17.40
2022-12-26T08:52:41.156Z,19.60
2022-12-26T08:55:14.713Z,19.00
2022-12-26T08:57:47.274Z,20.50
2022-12-26T09:00:24.488Z,21.70
2022-12-26T09:02:57.669Z,19.30
2022-12-26T09:05:30.647Z,19.90
2022-12-26T09:08:03.459Z,21.90
2022-12-26T09:10:36.108Z,21.40
2022-12-26T09:13:08.784Z,19.40
2022-12-26T09:15:41.627Z,21.40
2022-12-26T09:20:46.354Z,20.60
2022-12-26T09:23:18.958Z,17.30
2022-12-26T09:25:51.366Z,19.20
2022-12-26T09:28:26.358Z,16.50
2022-12-26T09:31:03.851Z,14.20
2022-12-26T09:33:38.475Z,17.00
2022-12-26T09:36:15.403Z,13.90
2022-12-26T09:38:49.611Z,15.50
2022-12-26T09:41:47.612Z,15.20
2022-12-26T09:44:27.391Z,12.20
2022-12-26T09:47:10.090Z,10.60
2022-12-26T09:49:51.838Z,14.10
2022-12-26T09:52:29.343Z,12.10
2022-12-26T09:55:06.825Z,9.50
2022-12-26T09:57:47.515Z,9.90
2022-12-26T10:00:24.665Z,12.90
2022-12-26T10:02:59.755Z,11.90
2022-12-26T10:05:41.009Z,9.50
2022-12-26T10:08:27.295Z,9.60
2022-12-26T10:11:04.574Z,11.50
2022-12-26T10:13:42.281Z,9.30
2022-12-26T10:16:18.760Z,10.20
2022-12-26T10:19:04.220Z,10.40
2022-12-26T10:21:51.357Z,9.20
2022-12-26T10:24:27.234Z,9.30
2022-12-26T10:27:07.028Z,9.50
2022-12-26T10:29:44.153Z,11.90
2022-12-26T10:32:27.509Z,11.00
2022-12-26T10:35:13.596Z,11.30
2022-12-26T10:37:47.979Z,9.40
2022-12-26T10:40:28.448Z,11.20
2022-12-26T10:43:16.043Z,9.60
2022-12-26T10:45:56.419Z,11.90
2022-12-26T10:48:32.577Z,10.30
2022-12-26T10:51:05.469Z,10.40
2022-12-26T10:53:42.068Z,9.50
2022-12-26T10:56:18.075Z,9.40
2022-12-26T10:59:00.585Z,9.40
2022-12-26T11:01:47.884Z,9.30
2022-12-26T11:07:21.076Z,7.70
2022-12-26T11:09:57.363Z,8.50
2022-12-26T11:12:36.370Z,8.00
2022-12-26T11:15:19.725Z,9.50
2022-12-26T11:17:55.954Z,9.60
2022-12-26T11:20:34.766Z,8.10
2022-12-26T11:23:31.991Z,8.90
2022-12-26T11:26:19.475Z,9.00
2022-12-26T11:29:06.152Z,9.30
2022-12-26T11:31:40.380Z,10.20
2022-12-26T11:34:20.057Z,8.40
2022-12-26T11:36:53.985Z,10.60
2022-12-26T11:39:29.006Z,11.40
2022-12-26T11:42:02.155Z,7.70
2022-12-26T11:44:41.337Z,9.70
2022-12-26T11:47:16.128Z,9.20
2022-12-26T11:49:59.812Z,12.20
2022-12-26T11:52:39.933Z,11.20
2022-12-26T11:55:30.304Z,9.40
2022-12-26T11:58:17.047Z,9.80
2022-12-26T12:01:07.394Z,10.20
2022-12-26T12:03:49.244Z,10.70
2022-12-26T12:06:49.706Z,10.20
2022-12-26T12:09:36.237Z,9.40
2022-12-26T12:12:17.337Z,11.60
2022-12-26T12:15:02.214Z,11.60
2022-12-26T12:17:39.632Z,10.00
2022-12-26T12:20:30.694Z,9.50
2022-12-26T12:23:29.398Z,8.10
2022-12-26T12:26:11.125Z,8.70
2022-12-26T12:29:28.851Z,10.10
2022-12-26T12:32:15.565Z,9.50
2022-12-26T12:35:18.195Z,10.40
2022-12-26T12:38:12.657Z,9.80
2022-12-26T12:40:53.804Z,9.80
2022-12-26T12:43:35.885Z,9.50
2022-12-26T12:46:21.422Z,9.30
2022-12-26T12:49:07.810Z,10.50
2022-12-26T12:51:52.315Z,8.90
2022-12-26T12:54:56.502Z,10.70
2022-12-26T12:57:33.795Z,11.90
2022-12-26T13:00:17.412Z,9.00
2022-12-26T13:03:00.336Z,8.70
2022-12-26T13:05:46.458Z,10.50
2022-12-26T13:08:24.667Z,8.50
2022-12-26T13:11:01.143Z,11.00
2022-12-26T13:13:39.986Z,8.70
2022-12-26T13:16:18.152Z,8.80
2022-12-26T13:18:55.006Z,10.30
2022-12-26T13:21:31.175Z,11.80
2022-12-26T13:24:26.464Z,10.10
2022-12-26T13:27:07.110Z,9.10
2022-12-26T13:29:42.830Z,11.00
2022-12-26T13:32:23.475Z,9.60
2022-12-26T13:34:57.784Z,9.80
2022-12-26T13:37:58.123Z,10.00
2022-12-26T13:40:33.365Z,9.10
2022-12-26T13:43:34.454Z,9.60
2022-12-26T13:46:07.303Z,9.40
2022-12-26T13:49:01.632Z,9.00
2022-12-26T13:51:52.474Z,9.50
2022-12-26T13:54:28.012Z,12.20
2022-12-26T13:57:26.396Z,11.90
2022-12-26T14:00:07.889Z,11.00
2022-12-26T14:03:24.367Z,10.80
2022-12-26T14:06:20.466Z,9.20
2022-12-26T14:09:10.072Z,10.10
2022-12-26T14:11:59.582Z,9.40
2022-12-26T14:14:43.440Z,11.50
2022-12-26T14:20:03.811Z,8.90
2022-12-26T14:22:47.062Z,10.70
2022-12-26T14:25:30.728Z,10.60
2022-12-26T14:28:13.698Z,9.50
2022-12-26T14:31:01.374Z,11.70
2022-12-26T14:33:40.107Z,9.30
2022-12-26T14:36:27.297Z,12.00
2022-12-26T14:39:06.583Z,8.30
2022-12-26T14:42:26.655Z,9.80
2022-12-26T14:45:03.396Z,12.20
2022-12-26T14:47:45.666Z,10.40
2022-12-26T14:50:40.618Z,11.20
2022-12-26T14:53:41.774Z,12.70
2022-12-26T14:56:36.260Z,13.00
2022-12-26T14:59:32.545Z,10.70
2022-12-26T15:02:13.607Z,11.30
2022-12-26T15:05:08.949Z,10.30
2022-12-26T15:08:20.565Z,11.70
2022-12-26T15:11:26.916Z,14.30
2022-12-26T15:14:37.756Z,13.20
2022-12-26T15:17:20.325Z,11.40
2022-12-26T15:20:29.163Z,11.90
2022-12-26T15:23:31.747Z,10.20
2022-12-26T15:26:39.518Z,12.10
2022-12-26T15:29:33.498Z,13.50
2022-12-26T15:32:19.152Z,13.60
2022-12-26T15:35:12.827Z,10.40
2022-12-26T15:38:03.584Z,11.20
2022-12-26T15:40:44.496Z,12.80
2022-12-26T15:43:49.491Z,12.60
2022-12-26T15:46:28.819Z,10.40
2022-12-26T15:49:34.187Z,11.70
2022-12-26T15:52:19.247Z,11.30
2022-12-26T15:55:18.073Z,10.70
2022-12-26T15:58:01.910Z,12.00
2022-12-26T16:00:38.722Z,13.20
2022-12-26T16:03:26.875Z,12.00
2022-12-26T16:06:07.148Z,9.50
2022-12-26T16:09:24.384Z,12.30
2022-12-26T16:12:00.352Z,10.00
2022-12-26T16:14:37.436Z,9.70
2022-12-26T16:17:26.555Z,11.80
2022-12-26T16:20:01.231Z,11.00
2022-12-26T16:22:48.592Z,10.80
2022-12-26T16:25:25.380Z,12.80
2022-12-26T16:28:02.247Z,17.60
2022-12-26T16:30:42.707Z,12.00
2022-12-26T16:33:19.143Z,21.10
2022-12-26T16:36:00.849Z,18.50
2022-12-26T16:38:36.705Z,15.20
2022-12-26T16:41:25.089Z,17.50
2022-12-26T16:44:30.071Z,20.40
2022-12-26T16:47:08.398Z,14.90
2022-12-26T16:49:45.543Z,14.20
2022-12-26T16:52:39.370Z,12.60
2022-12-26T16:55:39.704Z,12.80
2022-12-26T16:58:29.198Z,13.50
2022-12-26T17:01:17.798Z,14.60
2022-12-26T17:03:56.427Z,13.30
2022-12-26T17:06:41.187Z,13.00
2022-12-26T17:09:19.589Z,13.60
2022-12-26T17:12:04.106Z,13.10
2022-12-26T17:14:46.451Z,10.60
2022-12-26T17:17:34.188Z,13.10
2022-12-26T17:20:45.802Z,10.90
2022-12-26T17:23:43.150Z,12.50
2022-12-26T17:30:00.118Z,14.70
2022-12-26T17:32:44.265Z,15.50
2022-12-26T17:35:27.402Z,12.50
2022-12-26T17:38:08.623Z,12.20
2022-12-26T17:40:50.350Z,10.00
2022-12-26T17:43:32.295Z,12.00
2022-12-26T17:46:15.917Z,8.70
2022-12-26T17:48:54.184Z,12.60
2022-12-26T17:51:44.124Z,11.40
2022-12-26T17:54:24.515Z,10.10
2022-12-26T17:57:05.992Z,13.00
2022-12-26T17:59:47.371Z,10.40
2022-12-26T18:02:27.315Z,12.70
2022-12-26T18:05:05.424Z,11.40
2022-12-26T18:07:45.672Z,11.80
2022-12-26T18:10:30.262Z,11.40
2022-12-26T18:15:41.663Z,10.10
2022-12-26T18:18:35.131Z,15.50
2022-12-26T18:21:12.902Z,19.30
2022-12-26T18:23:46.175Z,15.40
2022-12-26T18:26:26.341Z,14.50
2022-12-26T18:28:59.472Z,13.00
2022-12-26T18:31:32.641Z,13.30
2022-12-26T18:34:05.813Z,11.60
2022-12-26T18:36:41.476Z,11.90
2022-12-26T18:39:17.816Z,13.40
2022-12-26T18:41:50.643Z,13.00
2022-12-26T18:44:23.475Z,12.50
2022-12-26T18:46:56.786Z,13.50
2022-12-26T18:49:33.942Z,11.20
2022-12-26T18:52:11.990Z,12.20
2022-12-26T18:54:55.811Z,13.30
2022-12-26T18:57:36.523Z,11.10
2022-12-26T19:00:21.751Z,13.20
2022-12-26T19:03:02.409Z,11.90
2022-12-26T19:05:41.694Z,11.40
2022-12-26T19:08:21.309Z,11.10
2022-12-26T19:10:54.831Z,12.90
2022-12-26T19:13:41.071Z,13.40
2022-12-26T19:16:19.015Z,10.80
2022-12-26T19:19:02.579Z,14.10
2022-12-26T19:21:46.203Z,11.80
2022-12-26T19:24:28.295Z,13.60
2022-12-26T19:27:06.406Z,14.10
2022-12-26T19:29:45.409Z,11.00
2022-12-26T19:32:19.477Z,10.60
2022-12-26T19:34:53.961Z,13.50
2022-12-26T19:37:27.313Z,12.70
2022-12-26T19:40:00.911Z,11.00
2022-12-26T19:42:37.714Z,12.80
2022-12-26T19:45:24.975Z,13.30
2022-12-26T19:48:03.367Z,12.90
2022-12-26T19:50:37.348Z,12.30
2022-12-26T19:53:09.925Z,14.30
2022-12-26T19:55:44.036Z,12.60
2022-12-26T19:58:17.194Z,13.80
2022-12-26T20:03:21.904Z,13.20
2022-12-26T20:05:54.902Z,13.00
2022-12-26T20:08:34.816Z,13.10
2022-12-26T20:11:14.954Z,12.50
2022-12-26T20:13:50.845Z,12.60
2022-12-26T20:19:31.096Z,16.60
2022-12-26T20:22:05.598Z,14.00
2022-12-26T20:24:41.144Z,15.70
2022-12-26T20:27:14.060Z,14.30
2022-12-26T20:29:46.601Z,13.70
2022-12-26T20:32:19.394Z,11.00
2022-12-26T20:34:52.587Z,12.50
2022-12-26T20:37:25.395Z,12.00
2022-12-26T20:40:00.816Z,11.70
2022-12-26T20:42:35.186Z,13.50
2022-12-26T20:45:09.814Z,12.20
2022-12-26T20:47:46.580Z,13.50
2022-12-26T20:50:23.124Z,11.60
2022-12-26T20:53:00.156Z,13.10
2022-12-26T20:55:39.744Z,13.70
2022-12-26T20:58:18.118Z,12.30
2022-12-26T21:00:59.766Z,15.30
2022-12-26T21:03:33.285Z,15.40
2022-12-26T21:06:12.185Z,16.00
2022-12-26T21:08:47.308Z,16.20
2022-12-26T21:11:22.734Z,14.60
2022-12-26T21:14:00.061Z,18.60
2022-12-26T21:16:35.181Z,16.60
2022-12-26T21:19:14.600Z,18.40
2022-12-26T21:21:50.222Z,17.20
2022-12-26T21:24:24.574Z,17.40
2022-12-26T21:26:57.756Z,14.90
2022-12-26T21:29:35.240Z,17.70
2022-12-26T21:32:08.569Z,16.00
2022-12-26T21:34:43.914Z,17.00
2022-12-26T21:37:34.289Z,16.80
2022-12-26T21:40:08.752Z,18.60
2022-12-26T21:42:41.888Z,18.00
2022-12-26T21:45:22.175Z,17.70
2022-12-26T21:47:59.746Z,21.10
2022-12-26T21:50:33.864Z,16.70
2022-12-26T21:55:39.000Z,17.90
2022-12-26T21:58:11.723Z,20.20
2022-12-26T22:00:45.703Z,18.80
2022-12-26T22:03:35.124Z,20.90
2022-12-26T22:06:07.874Z,18.10
2022-12-26T22:08:40.704Z,21.10
2022-12-26T22:11:37.190Z,20.70
2022-12-26T22:14:09.870Z,19.90
2022-12-26T22:16:43.015Z,17.10
2022-12-26T22:19:15.840Z,19.20
2022-12-26T22:21:49.690Z,21.10
2022-12-26T22:24:22.361Z,18.20
2022-12-26T22:26:54.964Z,21.50
2022-12-26T22:29:27.475Z,18.20
2022-12-26T22:31:59.974Z,21.20
2022-12-26T22:34:32.623Z,19.10
2022-12-26T22:37:05.138Z,21.20
2022-12-26T22:39:37.533Z,21.20
2022-12-26T22:42:10.939Z,19.10
2022-12-26T22:47:17.536Z,18.80
2022-12-26T22:49:50.210Z,21.30
2022-12-26T22:52:22.893Z,19.70
2022-12-26T22:54:55.835Z,17.50
2022-12-26T22:57:28.382Z,19.80
2022-12-26T23:00:09.696Z,20.40
2022-12-26T23:02:43.977Z,21.20
2022-12-26T23:05:18.372Z,23.20
2022-12-26T23:07:51.974Z,18.80
2022-12-26T23:10:27.174Z,20.50
2022-12-26T23:13:01.618Z,20.00
2022-12-26T23:15:37.290Z,22.00
2022-12-26T23:18:38.463Z,23.40
2022-12-26T23:21:40.564Z,22.10
2022-12-26T23:24:18.895Z,16.20
2022-12-26T23:26:54.285Z,22.10
2022-12-26T23:29:44.455Z,19.50
2022-12-26T23:32:16.972Z,19.40
2022-12-26T23:34:49.561Z,24.10
2022-12-26T23:37:22.077Z,21.00
2022-12-26T23:39:56.162Z,22.00
2022-12-26T23:42:30.335Z,20.20
2022-12-26T23:45:02.953Z,20.60
2022-12-26T23:47:37.371Z,18.40
2022-12-26T23:50:12.035Z,22.60
2022-12-26T23:52:45.813Z,21.00
2022-12-26T23:55:18.540Z,18.90
2022-12-26T23:57:51.033Z,17.70
